sensor_id;sensor_type;location;lat;lon;timestamp;P1;durP1;ratioP1;P2;durP2;ratioP2
15982;SDS011;14442;50.196;8.096;2023-12-20T00:01:27;1.60;;;0.40;;
15982;SDS011;14442;50.196;8.096;2023-12-20T00:03:53;0.63;;;0.40;;
15982;SDS011;14442;50.196;8.096;2023-12-20T00:06:20;0.97;;;0.70;;
15982;SDS011;14442;50.196;8.096;2023-12-20T00:08:47;2.13;;;0.60;;
15982;SDS011;14442;50.196;8.096;2023-12-20T00:11:14;2.67;;;0.50;;
15982;SDS011;14442;50.196;8.096;2023-12-20T00:13:42;15.23;;;1.37;;
15982;SDS011;14442;50.196;8.096;2023-12-20T00:16:09;11.27;;;1.00;;
15982;SDS011;14442;50.196;8.096;2023-12-20T00:18:36;8.07;;;1.03;;
15982;SDS011;14442;50.196;8.096;2023-12-20T00:21:03;11.47;;;0.90;;
15982;SDS011;14442;50.196;8.096;2023-12-20T00:23:29;12.30;;;1.63;;
15982;SDS011;14442;50.196;8.096;2023-12-20T00:25:56;9.00;;;0.70;;
15982;SDS011;14442;50.196;8.096;2023-12-20T00:28:23;8.17;;;1.00;;
15982;SDS011;14442;50.196;8.096;2023-12-20T00:30:51;8.87;;;1.10;;
15982;SDS011;14442;50.196;8.096;2023-12-20T00:33:18;9.63;;;1.40;;
15982;SDS011;14442;50.196;8.096;2023-12-20T00:35:44;7.83;;;0.70;;
15982;SDS011;14442;50.196;8.096;2023-12-20T00:38:11;6.27;;;0.90;;
15982;SDS011;14442;50.196;8.096;2023-12-20T00:40:38;6.17;;;0.67;;
15982;SDS011;14442;50.196;8.096;2023-12-20T00:43:05;5.77;;;1.40;;
15982;SDS011;14442;50.196;8.096;2023-12-20T00:45:31;5.13;;;0.50;;
15982;SDS011;14442;50.196;8.096;2023-12-20T00:47:59;4.40;;;0.40;;
15982;SDS011;14442;50.196;8.096;2023-12-20T00:50:26;6.00;;;0.50;;
15982;SDS011;14442;50.196;8.096;2023-12-20T00:52:53;1.20;;;0.47;;
15982;SDS011;14442;50.196;8.096;2023-12-20T00:55:21;6.57;;;0.70;;
15982;SDS011;14442;50.196;8.096;2023-12-20T00:57:47;5.73;;;0.47;;
15982;SDS011;14442;50.196;8.096;2023-12-20T01:00:15;4.93;;;0.30;;
15982;SDS011;14442;50.196;8.096;2023-12-20T01:02:42;2.77;;;0.50;;
15982;SDS011;14442;50.196;8.096;2023-12-20T01:05:10;2.40;;;0.30;;
15982;SDS011;14442;50.196;8.096;2023-12-20T01:07:36;3.23;;;0.30;;
15982;SDS011;14442;50.196;8.096;2023-12-20T01:10:04;3.80;;;0.30;;
15982;SDS011;14442;50.196;8.096;2023-12-20T01:12:32;3.50;;;0.40;;
15982;SDS011;14442;50.196;8.096;2023-12-20T01:14:59;2.63;;;0.30;;
15982;SDS011;14442;50.196;8.096;2023-12-20T01:17:26;1.47;;;0.30;;
15982;SDS011;14442;50.196;8.096;2023-12-20T01:19:52;3.07;;;0.30;;
15982;SDS011;14442;50.196;8.096;2023-12-20T01:22:20;7.57;;;0.40;;
15982;SDS011;14442;50.196;8.096;2023-12-20T01:24:47;3.40;;;0.30;;
15982;SDS011;14442;50.196;8.096;2023-12-20T01:27:14;1.20;;;0.20;;
15982;SDS011;14442;50.196;8.096;2023-12-20T01:29:41;2.07;;;0.20;;
15982;SDS011;14442;50.196;8.096;2023-12-20T01:32:07;2.20;;;0.30;;
15982;SDS011;14442;50.196;8.096;2023-12-20T01:34:34;0.73;;;0.23;;
15982;SDS011;14442;50.196;8.096;2023-12-20T01:37:01;0.87;;;0.17;;
15982;SDS011;14442;50.196;8.096;2023-12-20T01:39:29;0.70;;;0.20;;
15982;SDS011;14442;50.196;8.096;2023-12-20T01:41:55;2.03;;;0.30;;
15982;SDS011;14442;50.196;8.096;2023-12-20T01:44:22;1.93;;;0.20;;
15982;SDS011;14442;50.196;8.096;2023-12-20T01:46:49;2.53;;;0.20;;
15982;SDS011;14442;50.196;8.096;2023-12-20T01:49:16;0.00;;;0.00;;
15982;SDS011;14442;50.196;8.096;2023-12-20T01:51:43;0.53;;;0.13;;
15982;SDS011;14442;50.196;8.096;2023-12-20T01:54:10;0.70;;;0.13;;
15982;SDS011;14442;50.196;8.096;2023-12-20T01:56:38;1.40;;;0.10;;
15982;SDS011;14442;50.196;8.096;2023-12-20T01:59:06;0.93;;;0.20;;
15982;SDS011;14442;50.196;8.096;2023-12-20T02:01:34;2.43;;;0.10;;
15982;SDS011;14442;50.196;8.096;2023-12-20T02:04:01;1.07;;;0.10;;
15982;SDS011;14442;50.196;8.096;2023-12-20T02:06:29;1.70;;;0.20;;
15982;SDS011;14442;50.196;8.096;2023-12-20T02:08:56;0.53;;;0.10;;
15982;SDS011;14442;50.196;8.096;2023-12-20T02:11:23;0.53;;;0.10;;
15982;SDS011;14442;50.196;8.096;2023-12-20T02:13:52;1.07;;;0.30;;
15982;SDS011;14442;50.196;8.096;2023-12-20T02:16:19;0.20;;;0.10;;
15982;SDS011;14442;50.196;8.096;2023-12-20T02:18:46;0.30;;;0.20;;
15982;SDS011;14442;50.196;8.096;2023-12-20T02:21:13;0.10;;;0.10;;
15982;SDS011;14442;50.196;8.096;2023-12-20T02:23:42;0.77;;;0.17;;
15982;SDS011;14442;50.196;8.096;2023-12-20T02:26:09;0.30;;;0.10;;
15982;SDS011;14442;50.196;8.096;2023-12-20T02:28:38;0.10;;;0.10;;
15982;SDS011;14442;50.196;8.096;2023-12-20T02:31:04;0.47;;;0.10;;
15982;SDS011;14442;50.196;8.096;2023-12-20T02:33:31;0.30;;;0.10;;
15982;SDS011;14442;50.196;8.096;2023-12-20T02:35:58;0.37;;;0.00;;
15982;SDS011;14442;50.196;8.096;2023-12-20T02:38:25;1.00;;;0.10;;
15982;SDS011;14442;50.196;8.096;2023-12-20T02:40:53;0.77;;;0.20;;
15982;SDS011;14442;50.196;8.096;2023-12-20T02:43:19;0.07;;;0.07;;
15982;SDS011;14442;50.196;8.096;2023-12-20T02:45:46;1.30;;;0.10;;
15982;SDS011;14442;50.196;8.096;2023-12-20T02:48:13;1.07;;;0.10;;
15982;SDS011;14442;50.196;8.096;2023-12-20T02:50:39;0.87;;;0.10;;
15982;SDS011;14442;50.196;8.096;2023-12-20T02:53:06;0.10;;;0.10;;
15982;SDS011;14442;50.196;8.096;2023-12-20T02:55:33;0.00;;;0.00;;
15982;SDS011;14442;50.196;8.096;2023-12-20T02:58:01;0.47;;;0.10;;
15982;SDS011;14442;50.196;8.096;2023-12-20T03:00:27;0.00;;;0.00;;
15982;SDS011;14442;50.196;8.096;2023-12-20T03:02:54;0.40;;;0.10;;
15982;SDS011;14442;50.196;8.096;2023-12-20T03:05:21;0.27;;;0.00;;
15982;SDS011;14442;50.196;8.096;2023-12-20T03:07:47;0.23;;;0.10;;
15982;SDS011;14442;50.196;8.096;2023-12-20T03:10:14;0.43;;;0.10;;
15982;SDS011;14442;50.196;8.096;2023-12-20T03:12:41;0.00;;;0.00;;
15982;SDS011;14442;50.196;8.096;2023-12-20T03:15:09;0.53;;;0.20;;
15982;SDS011;14442;50.196;8.096;2023-12-20T03:17:36;0.17;;;0.10;;
15982;SDS011;14442;50.196;8.096;2023-12-20T03:20:03;0.57;;;0.07;;
15982;SDS011;14442;50.196;8.096;2023-12-20T03:22:31;0.00;;;0.00;;
15982;SDS011;14442;50.196;8.096;2023-12-20T03:24:57;0.00;;;0.00;;
15982;SDS011;14442;50.196;8.096;2023-12-20T03:27:24;0.10;;;0.10;;
15982;SDS011;14442;50.196;8.096;2023-12-20T03:29:51;0.10;;;0.10;;
15982;SDS011;14442;50.196;8.096;2023-12-20T03:32:19;0.00;;;0.00;;
15982;SDS011;14442;50.196;8.096;2023-12-20T03:34:45;0.77;;;0.00;;
15982;SDS011;14442;50.196;8.096;2023-12-20T03:37:13;0.07;;;0.07;;
15982;SDS011;14442;50.196;8.096;2023-12-20T03:39:40;0.10;;;0.00;;
15982;SDS011;14442;50.196;8.096;2023-12-20T03:42:06;0.00;;;0.00;;
15982;SDS011;14442;50.196;8.096;2023-12-20T03:44:33;0.00;;;0.00;;
15982;SDS011;14442;50.196;8.096;2023-12-20T03:47:00;0.10;;;0.10;;
15982;SDS011;14442;50.196;8.096;2023-12-20T03:49:28;0.63;;;0.00;;
15982;SDS011;14442;50.196;8.096;2023-12-20T03:51:54;0.13;;;0.13;;
15982;SDS011;14442;50.196;8.096;2023-12-20T03:54:21;1.20;;;1.13;;
15982;SDS011;14442;50.196;8.096;2023-12-20T03:56:48;3.50;;;2.07;;
15982;SDS011;14442;50.196;8.096;2023-12-20T03:59:15;2.57;;;1.57;;
15982;SDS011;14442;50.196;8.096;2023-12-20T04:01:42;1.47;;;1.13;;
15982;SDS011;14442;50.196;8.096;2023-12-20T04:04:09;2.37;;;2.17;;
15982;SDS011;14442;50.196;8.096;2023-12-20T04:06:37;3.23;;;2.40;;
15982;SDS011;14442;50.196;8.096;2023-12-20T04:09:04;2.67;;;2.37;;
15982;SDS011;14442;50.196;8.096;2023-12-20T04:11:31;2.57;;;2.37;;
15982;SDS011;14442;50.196;8.096;2023-12-20T04:13:57;2.43;;;2.20;;
15982;SDS011;14442;50.196;8.096;2023-12-20T04:16:24;2.07;;;1.80;;
15982;SDS011;14442;50.196;8.096;2023-12-20T04:18:51;2.00;;;1.87;;
15982;SDS011;14442;50.196;8.096;2023-12-20T04:21:17;3.80;;;2.40;;
15982;SDS011;14442;50.196;8.096;2023-12-20T04:23:46;1.70;;;1.60;;
15982;SDS011;14442;50.196;8.096;2023-12-20T04:26:12;2.03;;;1.80;;
15982;SDS011;14442;50.196;8.096;2023-12-20T04:28:39;2.07;;;1.80;;
15982;SDS011;14442;50.196;8.096;2023-12-20T04:31:06;2.57;;;1.67;;
15982;SDS011;14442;50.196;8.096;2023-12-20T04:33:32;1.97;;;1.60;;
15982;SDS011;14442;50.196;8.096;2023-12-20T04:35:59;3.00;;;1.90;;
15982;SDS011;14442;50.196;8.096;2023-12-20T04:38:26;1.80;;;1.70;;
15982;SDS011;14442;50.196;8.096;2023-12-20T04:40:54;1.67;;;1.30;;
15982;SDS011;14442;50.196;8.096;2023-12-20T04:43:20;1.60;;;1.50;;
15982;SDS011;14442;50.196;8.096;2023-12-20T04:45:47;3.63;;;1.50;;
15982;SDS011;14442;50.196;8.096;2023-12-20T04:48:14;2.63;;;1.50;;
15982;SDS011;14442;50.196;8.096;2023-12-20T04:50:41;2.07;;;1.67;;
15982;SDS011;14442;50.196;8.096;2023-12-20T04:53:07;1.07;;;1.07;;
15982;SDS011;14442;50.196;8.096;2023-12-20T04:55:34;1.50;;;1.37;;
15982;SDS011;14442;50.196;8.096;2023-12-20T04:58:03;1.70;;;1.30;;
15982;SDS011;14442;50.196;8.096;2023-12-20T05:00:29;2.03;;;1.40;;
15982;SDS011;14442;50.196;8.096;2023-12-20T05:02:56;1.33;;;1.17;;
15982;SDS011;14442;50.196;8.096;2023-12-20T05:05:23;2.27;;;1.30;;
15982;SDS011;14442;50.196;8.096;2023-12-20T05:07:49;3.17;;;1.43;;
15982;SDS011;14442;50.196;8.096;2023-12-20T05:10:17;1.83;;;1.40;;
15982;SDS011;14442;50.196;8.096;2023-12-20T05:12:44;1.17;;;1.10;;
15982;SDS011;14442;50.196;8.096;2023-12-20T05:15:12;2.70;;;1.10;;
15982;SDS011;14442;50.196;8.096;2023-12-20T05:17:39;2.33;;;0.90;;
15982;SDS011;14442;50.196;8.096;2023-12-20T05:20:06;1.20;;;1.10;;
15982;SDS011;14442;50.196;8.096;2023-12-20T05:22:33;1.17;;;1.03;;
15982;SDS011;14442;50.196;8.096;2023-12-20T05:24:59;1.00;;;0.90;;
15982;SDS011;14442;50.196;8.096;2023-12-20T05:27:26;1.23;;;0.83;;
15982;SDS011;14442;50.196;8.096;2023-12-20T05:29:53;1.10;;;1.00;;
15982;SDS011;14442;50.196;8.096;2023-12-20T05:32:23;0.83;;;0.70;;
15982;SDS011;14442;50.196;8.096;2023-12-20T05:34:50;0.83;;;0.60;;
15982;SDS011;14442;50.196;8.096;2023-12-20T05:37:17;0.70;;;0.70;;
15982;SDS011;14442;50.196;8.096;2023-12-20T05:39:44;0.80;;;0.80;;
15982;SDS011;14442;50.196;8.096;2023-12-20T05:42:11;1.40;;;0.73;;
15982;SDS011;14442;50.196;8.096;2023-12-20T05:44:37;0.70;;;0.70;;
15982;SDS011;14442;50.196;8.096;2023-12-20T05:47:04;1.17;;;0.70;;
15982;SDS011;14442;50.196;8.096;2023-12-20T05:49:32;2.43;;;0.90;;
15982;SDS011;14442;50.196;8.096;2023-12-20T05:51:59;0.47;;;0.47;;
15982;SDS011;14442;50.196;8.096;2023-12-20T05:54:25;0.80;;;0.80;;
15982;SDS011;14442;50.196;8.096;2023-12-20T05:56:52;0.83;;;0.80;;
15982;SDS011;14442;50.196;8.096;2023-12-20T05:59:19;0.70;;;0.70;;
15982;SDS011;14442;50.196;8.096;2023-12-20T06:01:46;1.00;;;0.80;;
15982;SDS011;14442;50.196;8.096;2023-12-20T06:04:13;0.87;;;0.63;;
15982;SDS011;14442;50.196;8.096;2023-12-20T06:06:41;1.17;;;0.70;;
15982;SDS011;14442;50.196;8.096;2023-12-20T06:09:08;0.50;;;0.50;;
15982;SDS011;14442;50.196;8.096;2023-12-20T06:11:35;1.57;;;0.57;;
15982;SDS011;14442;50.196;8.096;2023-12-20T06:14:02;0.90;;;0.60;;
15982;SDS011;14442;50.196;8.096;2023-12-20T06:16:29;2.40;;;0.70;;
15982;SDS011;14442;50.196;8.096;2023-12-20T06:18:56;0.80;;;0.77;;
15982;SDS011;14442;50.196;8.096;2023-12-20T06:21:23;1.10;;;0.33;;
15982;SDS011;14442;50.196;8.096;2023-12-20T06:23:51;0.60;;;0.60;;
15982;SDS011;14442;50.196;8.096;2023-12-20T06:26:18;0.60;;;0.50;;
15982;SDS011;14442;50.196;8.096;2023-12-20T06:28:44;0.50;;;0.50;;
15982;SDS011;14442;50.196;8.096;2023-12-20T06:31:11;0.50;;;0.50;;
15982;SDS011;14442;50.196;8.096;2023-12-20T06:33:38;1.73;;;0.50;;
15982;SDS011;14442;50.196;8.096;2023-12-20T06:36:06;0.60;;;0.60;;
15982;SDS011;14442;50.196;8.096;2023-12-20T06:38:33;0.60;;;0.50;;
15982;SDS011;14442;50.196;8.096;2023-12-20T06:41:01;0.50;;;0.40;;
15982;SDS011;14442;50.196;8.096;2023-12-20T06:43:28;0.67;;;0.60;;
15982;SDS011;14442;50.196;8.096;2023-12-20T06:45:56;0.97;;;0.60;;
15982;SDS011;14442;50.196;8.096;2023-12-20T06:48:22;1.00;;;0.90;;
15982;SDS011;14442;50.196;8.096;2023-12-20T06:50:49;0.57;;;0.43;;
15982;SDS011;14442;50.196;8.096;2023-12-20T06:53:16;1.37;;;0.47;;
15982;SDS011;14442;50.196;8.096;2023-12-20T06:55:42;1.03;;;0.40;;
15982;SDS011;14442;50.196;8.096;2023-12-20T06:58:10;0.40;;;0.40;;
15982;SDS011;14442;50.196;8.096;2023-12-20T07:00:40;1.13;;;0.50;;
15982;SDS011;14442;50.196;8.096;2023-12-20T07:03:07;0.97;;;0.40;;
15982;SDS011;14442;50.196;8.096;2023-12-20T07:05:35;0.63;;;0.43;;
15982;SDS011;14442;50.196;8.096;2023-12-20T07:08:01;2.10;;;0.50;;
15982;SDS011;14442;50.196;8.096;2023-12-20T07:10:28;1.03;;;0.67;;
15982;SDS011;14442;50.196;8.096;2023-12-20T07:12:55;0.43;;;0.40;;
15982;SDS011;14442;50.196;8.096;2023-12-20T07:15:23;0.97;;;0.40;;
15982;SDS011;14442;50.196;8.096;2023-12-20T07:17:49;0.90;;;0.33;;
15982;SDS011;14442;50.196;8.096;2023-12-20T07:20:16;0.63;;;0.50;;
15982;SDS011;14442;50.196;8.096;2023-12-20T07:22:43;1.17;;;0.50;;
15982;SDS011;14442;50.196;8.096;2023-12-20T07:25:10;3.47;;;0.50;;
15982;SDS011;14442;50.196;8.096;2023-12-20T07:27:36;2.27;;;0.60;;
15982;SDS011;14442;50.196;8.096;2023-12-20T07:30:03;1.03;;;0.40;;
15982;SDS011;14442;50.196;8.096;2023-12-20T07:32:32;1.47;;;0.40;;
15982;SDS011;14442;50.196;8.096;2023-12-20T07:34:59;2.23;;;0.50;;
15982;SDS011;14442;50.196;8.096;2023-12-20T07:37:25;0.70;;;0.50;;
15982;SDS011;14442;50.196;8.096;2023-12-20T07:39:52;1.87;;;0.50;;
15982;SDS011;14442;50.196;8.096;2023-12-20T07:42:19;0.80;;;0.47;;
15982;SDS011;14442;50.196;8.096;2023-12-20T07:44:47;0.33;;;0.33;;
15982;SDS011;14442;50.196;8.096;2023-12-20T07:47:13;1.40;;;0.40;;
15982;SDS011;14442;50.196;8.096;2023-12-20T07:49:45;0.40;;;0.40;;
15982;SDS011;14442;50.196;8.096;2023-12-20T07:52:12;1.27;;;0.50;;
15982;SDS011;14442;50.196;8.096;2023-12-20T07:54:39;0.83;;;0.30;;
15982;SDS011;14442;50.196;8.096;2023-12-20T07:57:06;1.03;;;0.40;;
15982;SDS011;14442;50.196;8.096;2023-12-20T07:59:33;3.10;;;0.63;;
15982;SDS011;14442;50.196;8.096;2023-12-20T08:01:59;1.43;;;0.50;;
15982;SDS011;14442;50.196;8.096;2023-12-20T08:04:26;0.67;;;0.43;;
15982;SDS011;14442;50.196;8.096;2023-12-20T08:06:54;0.47;;;0.30;;
15982;SDS011;14442;50.196;8.096;2023-12-20T08:09:21;0.30;;;0.20;;
15982;SDS011;14442;50.196;8.096;2023-12-20T08:11:48;0.67;;;0.30;;
15982;SDS011;14442;50.196;8.096;2023-12-20T08:14:15;1.33;;;0.40;;
15982;SDS011;14442;50.196;8.096;2023-12-20T08:16:42;2.27;;;0.40;;
15982;SDS011;14442;50.196;8.096;2023-12-20T08:19:09;1.27;;;0.40;;
15982;SDS011;14442;50.196;8.096;2023-12-20T08:21:35;0.53;;;0.40;;
15982;SDS011;14442;50.196;8.096;2023-12-20T08:24:04;1.17;;;0.50;;
15982;SDS011;14442;50.196;8.096;2023-12-20T08:26:31;1.23;;;0.43;;
15982;SDS011;14442;50.196;8.096;2023-12-20T08:28:58;0.40;;;0.33;;
15982;SDS011;14442;50.196;8.096;2023-12-20T08:31:25;0.43;;;0.30;;
15982;SDS011;14442;50.196;8.096;2023-12-20T08:33:52;1.90;;;0.43;;
15982;SDS011;14442;50.196;8.096;2023-12-20T08:36:19;0.60;;;0.30;;
15982;SDS011;14442;50.196;8.096;2023-12-20T08:38:48;1.17;;;0.30;;
15982;SDS011;14442;50.196;8.096;2023-12-20T08:41:17;1.03;;;0.37;;
15982;SDS011;14442;50.196;8.096;2023-12-20T08:43:44;0.70;;;0.53;;
15982;SDS011;14442;50.196;8.096;2023-12-20T08:46:11;1.80;;;0.70;;
15982;SDS011;14442;50.196;8.096;2023-12-20T08:48:37;0.57;;;0.33;;
15982;SDS011;14442;50.196;8.096;2023-12-20T08:51:04;0.67;;;0.37;;
15982;SDS011;14442;50.196;8.096;2023-12-20T08:53:32;1.40;;;0.50;;
15982;SDS011;14442;50.196;8.096;2023-12-20T08:55:59;0.43;;;0.30;;
15982;SDS011;14442;50.196;8.096;2023-12-20T08:58:28;0.77;;;0.40;;
15982;SDS011;14442;50.196;8.096;2023-12-20T09:00:55;0.60;;;0.40;;
15982;SDS011;14442;50.196;8.096;2023-12-20T09:03:22;0.53;;;0.40;;
15982;SDS011;14442;50.196;8.096;2023-12-20T09:05:49;0.67;;;0.40;;
15982;SDS011;14442;50.196;8.096;2023-12-20T09:08:15;1.43;;;0.43;;
15982;SDS011;14442;50.196;8.096;2023-12-20T09:10:42;0.40;;;0.30;;
15982;SDS011;14442;50.196;8.096;2023-12-20T09:13:09;1.17;;;0.40;;
15982;SDS011;14442;50.196;8.096;2023-12-20T09:15:37;1.00;;;0.30;;
15982;SDS011;14442;50.196;8.096;2023-12-20T09:18:04;0.80;;;0.40;;
15982;SDS011;14442;50.196;8.096;2023-12-20T09:20:31;3.67;;;0.50;;
15982;SDS011;14442;50.196;8.096;2023-12-20T09:22:58;7.97;;;0.77;;
15982;SDS011;14442;50.196;8.096;2023-12-20T09:25:24;9.70;;;1.20;;
15982;SDS011;14442;50.196;8.096;2023-12-20T09:27:52;8.67;;;0.80;;
15982;SDS011;14442;50.196;8.096;2023-12-20T09:30:18;9.53;;;0.70;;
15982;SDS011;14442;50.196;8.096;2023-12-20T09:32:46;8.33;;;1.03;;
15982;SDS011;14442;50.196;8.096;2023-12-20T09:35:13;8.40;;;1.20;;
15982;SDS011;14442;50.196;8.096;2023-12-20T09:37:40;10.80;;;1.17;;
15982;SDS011;14442;50.196;8.096;2023-12-20T09:40:10;9.60;;;1.60;;
15982;SDS011;14442;50.196;8.096;2023-12-20T09:42:40;15.90;;;1.70;;
15982;SDS011;14442;50.196;8.096;2023-12-20T09:45:15;8.77;;;1.27;;
15982;SDS011;14442;50.196;8.096;2023-12-20T09:47:44;5.03;;;0.90;;
15982;SDS011;14442;50.196;8.096;2023-12-20T09:50:12;13.00;;;1.90;;
15982;SDS011;14442;50.196;8.096;2023-12-20T09:52:39;15.20;;;1.53;;
15982;SDS011;14442;50.196;8.096;2023-12-20T09:55:07;17.13;;;2.10;;
15982;SDS011;14442;50.196;8.096;2023-12-20T09:57:34;10.67;;;1.50;;
15982;SDS011;14442;50.196;8.096;2023-12-20T10:00:01;13.70;;;1.30;;
15982;SDS011;14442;50.196;8.096;2023-12-20T10:02:28;15.13;;;1.40;;
15982;SDS011;14442;50.196;8.096;2023-12-20T10:04:58;12.07;;;1.43;;
15982;SDS011;14442;50.196;8.096;2023-12-20T10:07:26;5.47;;;1.27;;
15982;SDS011;14442;50.196;8.096;2023-12-20T10:09:54;17.07;;;1.70;;
15982;SDS011;14442;50.196;8.096;2023-12-20T10:12:21;9.03;;;1.57;;
15982;SDS011;14442;50.196;8.096;2023-12-20T10:14:48;10.50;;;1.27;;
15982;SDS011;14442;50.196;8.096;2023-12-20T10:17:16;8.30;;;1.00;;
15982;SDS011;14442;50.196;8.096;2023-12-20T10:19:43;12.93;;;1.73;;
15982;SDS011;14442;50.196;8.096;2023-12-20T10:22:11;6.10;;;0.80;;
15982;SDS011;14442;50.196;8.096;2023-12-20T10:24:38;10.07;;;1.10;;
15982;SDS011;14442;50.196;8.096;2023-12-20T10:27:07;7.80;;;0.90;;
15982;SDS011;14442;50.196;8.096;2023-12-20T10:29:35;6.27;;;0.87;;
15982;SDS011;14442;50.196;8.096;2023-12-20T10:34:47;3.07;;;0.80;;
15982;SDS011;14442;50.196;8.096;2023-12-20T10:37:15;6.97;;;1.53;;
15982;SDS011;14442;50.196;8.096;2023-12-20T10:39:42;4.83;;;0.80;;
15982;SDS011;14442;50.196;8.096;2023-12-20T10:42:09;2.80;;;1.03;;
15982;SDS011;14442;50.196;8.096;2023-12-20T10:44:38;2.60;;;0.80;;
15982;SDS011;14442;50.196;8.096;2023-12-20T10:47:05;3.00;;;0.60;;
15982;SDS011;14442;50.196;8.096;2023-12-20T10:49:33;2.60;;;0.50;;
15982;SDS011;14442;50.196;8.096;2023-12-20T10:52:02;3.37;;;0.83;;
15982;SDS011;14442;50.196;8.096;2023-12-20T10:54:33;5.37;;;0.90;;
15982;SDS011;14442;50.196;8.096;2023-12-20T10:56:59;4.93;;;0.87;;
15982;SDS011;14442;50.196;8.096;2023-12-20T10:59:29;3.07;;;0.70;;
15982;SDS011;14442;50.196;8.096;2023-12-20T11:01:59;5.70;;;0.93;;
15982;SDS011;14442;50.196;8.096;2023-12-20T11:04:28;4.70;;;0.63;;
15982;SDS011;14442;50.196;8.096;2023-12-20T11:07:04;12.93;;;1.40;;
15982;SDS011;14442;50.196;8.096;2023-12-20T11:09:38;12.17;;;2.20;;
15982;SDS011;14442;50.196;8.096;2023-12-20T11:12:12;9.23;;;1.17;;
15982;SDS011;14442;50.196;8.096;2023-12-20T11:14:45;8.83;;;1.30;;
15982;SDS011;14442;50.196;8.096;2023-12-20T11:17:13;5.37;;;1.00;;
15982;SDS011;14442;50.196;8.096;2023-12-20T11:22:35;8.27;;;0.87;;
15982;SDS011;14442;50.196;8.096;2023-12-20T11:25:06;10.03;;;1.40;;
15982;SDS011;14442;50.196;8.096;2023-12-20T11:27:34;12.53;;;1.33;;
15982;SDS011;14442;50.196;8.096;2023-12-20T11:30:02;9.93;;;1.40;;
15982;SDS011;14442;50.196;8.096;2023-12-20T11:32:31;10.57;;;1.00;;
15982;SDS011;14442;50.196;8.096;2023-12-20T11:35:00;11.57;;;1.17;;
15982;SDS011;14442;50.196;8.096;2023-12-20T11:37:42;6.33;;;0.80;;
15982;SDS011;14442;50.196;8.096;2023-12-20T11:40:12;7.93;;;1.20;;
15982;SDS011;14442;50.196;8.096;2023-12-20T11:42:41;8.37;;;1.20;;
15982;SDS011;14442;50.196;8.096;2023-12-20T11:45:10;4.87;;;0.90;;
15982;SDS011;14442;50.196;8.096;2023-12-20T11:47:40;7.77;;;0.80;;
15982;SDS011;14442;50.196;8.096;2023-12-20T11:50:08;4.10;;;0.80;;
15982;SDS011;14442;50.196;8.096;2023-12-20T11:52:35;5.87;;;1.53;;
15982;SDS011;14442;50.196;8.096;2023-12-20T11:55:02;6.00;;;0.80;;
15982;SDS011;14442;50.196;8.096;2023-12-20T11:57:30;7.33;;;1.20;;
15982;SDS011;14442;50.196;8.096;2023-12-20T11:59:58;1.47;;;0.47;;
15982;SDS011;14442;50.196;8.096;2023-12-20T12:02:25;6.73;;;1.00;;
15982;SDS011;14442;50.196;8.096;2023-12-20T12:04:51;4.33;;;0.70;;
15982;SDS011;14442;50.196;8.096;2023-12-20T12:07:18;4.57;;;0.60;;
15982;SDS011;14442;50.196;8.096;2023-12-20T12:09:45;5.17;;;0.60;;
15982;SDS011;14442;50.196;8.096;2023-12-20T12:12:12;1.80;;;0.50;;
15982;SDS011;14442;50.196;8.096;2023-12-20T12:14:41;4.60;;;0.70;;
15982;SDS011;14442;50.196;8.096;2023-12-20T12:17:09;5.17;;;0.80;;
15982;SDS011;14442;50.196;8.096;2023-12-20T12:19:37;2.87;;;0.40;;
15982;SDS011;14442;50.196;8.096;2023-12-20T12:22:04;1.60;;;0.50;;
15982;SDS011;14442;50.196;8.096;2023-12-20T12:24:33;3.43;;;0.57;;
15982;SDS011;14442;50.196;8.096;2023-12-20T12:27:00;2.73;;;0.50;;
15982;SDS011;14442;50.196;8.096;2023-12-20T12:29:27;3.90;;;0.60;;
15982;SDS011;14442;50.196;8.096;2023-12-20T12:31:55;1.97;;;0.70;;
15982;SDS011;14442;50.196;8.096;2023-12-20T12:34:21;2.10;;;0.47;;
15982;SDS011;14442;50.196;8.096;2023-12-20T12:36:48;2.23;;;0.50;;
15982;SDS011;14442;50.196;8.096;2023-12-20T12:39:15;0.67;;;0.20;;
15982;SDS011;14442;50.196;8.096;2023-12-20T12:41:44;4.10;;;0.40;;
15982;SDS011;14442;50.196;8.096;2023-12-20T12:44:11;1.07;;;0.40;;
15982;SDS011;14442;50.196;8.096;2023-12-20T12:46:37;1.97;;;0.50;;
15982;SDS011;14442;50.196;8.096;2023-12-20T12:49:05;2.83;;;0.40;;
15982;SDS011;14442;50.196;8.096;2023-12-20T12:51:32;1.67;;;0.50;;
15982;SDS011;14442;50.196;8.096;2023-12-20T12:53:59;1.97;;;0.50;;
15982;SDS011;14442;50.196;8.096;2023-12-20T12:56:26;1.50;;;0.40;;
15982;SDS011;14442;50.196;8.096;2023-12-20T12:58:52;2.53;;;0.60;;
15982;SDS011;14442;50.196;8.096;2023-12-20T13:01:19;1.93;;;0.50;;
15982;SDS011;14442;50.196;8.096;2023-12-20T13:03:46;2.17;;;0.43;;
15982;SDS011;14442;50.196;8.096;2023-12-20T13:06:14;1.23;;;0.40;;
15982;SDS011;14442;50.196;8.096;2023-12-20T13:08:41;2.60;;;0.50;;
15982;SDS011;14442;50.196;8.096;2023-12-20T13:11:07;2.00;;;0.40;;
15982;SDS011;14442;50.196;8.096;2023-12-20T13:13:34;1.40;;;0.40;;
15982;SDS011;14442;50.196;8.096;2023-12-20T13:16:01;1.27;;;0.40;;
15982;SDS011;14442;50.196;8.096;2023-12-20T13:18:28;0.73;;;0.40;;
15982;SDS011;14442;50.196;8.096;2023-12-20T13:20:55;1.70;;;0.40;;
15982;SDS011;14442;50.196;8.096;2023-12-20T13:23:23;1.67;;;0.40;;
15982;SDS011;14442;50.196;8.096;2023-12-20T13:25:50;1.23;;;0.30;;
15982;SDS011;14442;50.196;8.096;2023-12-20T13:28:16;4.53;;;0.60;;
15982;SDS011;14442;50.196;8.096;2023-12-20T13:30:43;2.13;;;0.50;;
15982;SDS011;14442;50.196;8.096;2023-12-20T13:33:10;3.77;;;0.67;;
15982;SDS011;14442;50.196;8.096;2023-12-20T13:35:37;1.23;;;0.43;;
15982;SDS011;14442;50.196;8.096;2023-12-20T13:38:04;3.20;;;0.40;;
15982;SDS011;14442;50.196;8.096;2023-12-20T13:40:32;3.37;;;0.80;;
15982;SDS011;14442;50.196;8.096;2023-12-20T13:42:59;2.07;;;0.50;;
15982;SDS011;14442;50.196;8.096;2023-12-20T13:45:26;2.10;;;0.63;;
15982;SDS011;14442;50.196;8.096;2023-12-20T13:47:53;1.73;;;0.60;;
15982;SDS011;14442;50.196;8.096;2023-12-20T13:50:20;3.50;;;0.60;;
15982;SDS011;14442;50.196;8.096;2023-12-20T13:52:47;0.40;;;0.30;;
15982;SDS011;14442;50.196;8.096;2023-12-20T13:55:14;1.07;;;0.47;;
15982;SDS011;14442;50.196;8.096;2023-12-20T13:57:42;1.47;;;0.40;;
15982;SDS011;14442;50.196;8.096;2023-12-20T14:00:10;2.73;;;0.40;;
15982;SDS011;14442;50.196;8.096;2023-12-20T14:02:39;1.97;;;0.40;;
15982;SDS011;14442;50.196;8.096;2023-12-20T14:05:07;2.17;;;0.77;;
15982;SDS011;14442;50.196;8.096;2023-12-20T14:07:34;1.90;;;0.50;;
15982;SDS011;14442;50.196;8.096;2023-12-20T14:10:01;0.60;;;0.30;;
15982;SDS011;14442;50.196;8.096;2023-12-20T14:12:28;2.80;;;0.70;;
15982;SDS011;14442;50.196;8.096;2023-12-20T14:14:56;0.20;;;0.20;;
15982;SDS011;14442;50.196;8.096;2023-12-20T14:17:22;1.97;;;0.60;;
15982;SDS011;14442;50.196;8.096;2023-12-20T14:19:49;3.23;;;0.70;;
15982;SDS011;14442;50.196;8.096;2023-12-20T14:22:16;1.87;;;0.40;;
15982;SDS011;14442;50.196;8.096;2023-12-20T14:24:43;3.80;;;0.50;;
15982;SDS011;14442;50.196;8.096;2023-12-20T14:27:10;7.33;;;0.50;;
15982;SDS011;14442;50.196;8.096;2023-12-20T14:29:38;1.77;;;0.70;;
15982;SDS011;14442;50.196;8.096;2023-12-20T14:32:06;3.40;;;0.57;;
15982;SDS011;14442;50.196;8.096;2023-12-20T14:34:33;3.80;;;0.70;;
15982;SDS011;14442;50.196;8.096;2023-12-20T14:37:01;1.57;;;0.50;;
15982;SDS011;14442;50.196;8.096;2023-12-20T14:39:28;1.87;;;0.40;;
15982;SDS011;14442;50.196;8.096;2023-12-20T14:41:55;2.00;;;0.47;;
15982;SDS011;14442;50.196;8.096;2023-12-20T14:44:22;4.37;;;0.57;;
15982;SDS011;14442;50.196;8.096;2023-12-20T14:46:49;3.73;;;0.70;;
15982;SDS011;14442;50.196;8.096;2023-12-20T14:49:18;2.00;;;0.40;;
15982;SDS011;14442;50.196;8.096;2023-12-20T14:51:44;4.27;;;0.67;;
15982;SDS011;14442;50.196;8.096;2023-12-20T14:54:12;0.97;;;0.30;;